Time;durP1;ratioP1;P1;durP2;ratioP2;P2;SDS_P1;SDS_P2;PMS_P1;PMS_P2;Temp;Humidity;BMP_temperature;BMP_pressure;BME280_temperature;BME280_humidity;BME280_pressure;Samples;Min_cycle;Max_cycle;Signal;HPM_P1;HPM_P2
2021/11/27 00:02:05;;;;;;;4.03;1.60;;;;;;;8.76;55.84;93443.50;5097115;27;20504;-78
2021/11/27 00:04:31;;;;;;;2.08;1.40;;;;;;;8.85;56.47;93471.09;5096629;27;20055;-77
2021/11/27 00:06:56;;;;;;;4.38;1.63;;;;;;;8.80;56.76;93469.91;5114109;27;20384;-78
2021/11/27 00:09:21;;;;;;;2.25;1.40;;;;;;;8.68;57.31;93469.31;5132092;27;20035;-77
2021/11/27 00:11:47;;;;;;;2.50;1.40;;;;;;;8.59;57.42;93458.06;5096762;27;20030;-78
2021/11/27 00:14:14;;;;;;;3.65;1.80;;;;;;;8.56;58.77;93460.16;5130757;27;20508;-77
2021/11/27 00:16:39;;;;;;;3.38;1.98;;;;;;;8.36;59.91;93442.16;5097253;27;20023;-77
2021/11/27 00:19:10;;;;;;;3.05;2.05;;;;;;;8.36;58.21;93447.31;5096391;28;20039;-77
2021/11/27 00:21:36;;;;;;;3.53;1.70;;;;;;;8.38;56.50;93449.75;5114451;27;20051;-78
2021/11/27 00:24:01;;;;;;;1.92;1.10;;;;;;;8.63;55.03;93463.75;5113555;27;20035;-78
2021/11/27 00:26:27;;;;;;;2.55;1.20;;;;;;;8.80;55.30;93450.00;5113565;28;20023;-77
2021/11/27 00:28:52;;;;;;;1.73;1.08;;;;;;;8.99;54.19;93472.31;5096421;28;20027;-77
2021/11/27 00:31:23;;;;;;;1.77;1.05;;;;;;;9.07;54.06;93471.59;5113514;28;20023;-77
2021/11/27 00:33:48;;;;;;;1.75;1.13;;;;;;;9.04;54.94;93488.25;5113819;28;20099;-77
2021/11/27 00:36:14;;;;;;;4.40;1.30;;;;;;;8.95;57.07;93492.53;5113458;28;20032;-77
2021/11/27 00:38:40;;;;;;;2.10;1.30;;;;;;;8.78;57.93;93480.41;5113438;28;20521;-77
2021/11/27 00:41:05;;;;;;;2.50;1.65;;;;;;;8.72;57.35;93491.38;5113268;28;20119;-76
2021/11/27 00:43:31;;;;;;;2.83;1.70;;;;;;;8.67;57.24;93481.44;5130412;28;20036;-78
2021/11/27 00:45:56;;;;;;;2.72;1.80;;;;;;;8.57;57.78;93466.94;5113128;28;20020;-79
2021/11/27 00:48:22;;;;;;;5.07;2.75;;;;;;;8.61;57.61;93478.63;5096308;28;20039;-76
2021/11/27 00:50:50;;;;;;;7.55;3.75;;;;;;;8.53;60.15;93468.22;5113438;28;20128;-79
2021/11/27 00:53:15;;;;;;;6.15;2.75;;;;;;;8.38;59.72;93447.97;5096314;28;20041;-76
2021/11/27 00:55:41;;;;;;;3.53;1.80;;;;;;;8.46;58.71;93457.63;5113311;28;20122;-76
2021/11/27 00:58:06;;;;;;;1.60;1.10;;;;;;;8.58;56.26;93455.63;5096132;28;20027;-79
2021/11/27 01:00:34;;;;;;;1.50;1.00;;;;;;;8.83;55.45;93452.31;5113055;28;20413;-79
2021/11/27 01:03:01;;;;;;;2.55;1.17;;;;;;;8.98;55.33;93462.13;5099259;27;20116;-78
2021/11/27 01:05:27;;;;;;;1.80;1.25;;;;;;;9.08;55.54;93461.09;5099931;27;20108;-79
2021/11/27 01:07:53;;;;;;;1.58;1.10;;;;;;;9.13;55.51;93471.78;5100094;27;20114;-76
2021/11/27 01:10:22;;;;;;;3.15;1.83;;;;;;;9.01;56.46;93472.19;5117190;27;20539;-76
2021/11/27 01:12:47;;;;;;;2.05;1.40;;;;;;;8.95;56.29;93474.41;5117131;27;20038;-78
2021/11/27 01:15:14;;;;;;;2.08;1.30;;;;;;;9.02;56.46;93484.16;5134207;27;20035;-76
2021/11/27 01:17:39;;;;;;;2.75;1.80;;;;;;;8.89;56.86;93471.63;5116908;27;20046;-76
2021/11/27 01:20:06;;;;;;;3.40;2.30;;;;;;;8.87;57.00;93471.75;5099624;27;20095;-79
2021/11/27 01:22:31;;;;;;;2.53;1.80;;;;;;;8.88;56.69;93472.56;5134036;27;20066;-76
2021/11/27 01:24:57;;;;;;;2.17;1.73;;;;;;;8.82;57.86;93473.16;5116869;27;20059;-79
2021/11/27 01:27:24;;;;;;;2.78;1.75;;;;;;;8.80;57.42;93475.88;5116742;27;20037;-76
2021/11/27 01:29:49;;;;;;;4.30;2.80;;;;;;;8.78;57.47;93461.50;5135277;27;20047;-76
2021/11/27 01:32:15;;;;;;;3.85;2.67;;;;;;;8.51;58.78;93442.47;5135008;27;20030;-76
2021/11/27 01:34:41;;;;;;;4.43;2.47;;;;;;;8.26;59.09;93410.34;5116487;27;20110;-76
2021/11/27 01:37:06;;;;;;;4.35;2.35;;;;;;;8.48;60.12;93447.94;5116692;27;20023;-76
2021/11/27 01:39:32;;;;;;;2.90;2.17;;;;;;;8.38;59.90;93455.72;5116407;27;20092;-76
2021/11/27 01:41:58;;;;;;;2.92;2.15;;;;;;;8.32;60.80;93458.91;5133547;27;20079;-76
2021/11/27 01:44:23;;;;;;;2.75;1.70;;;;;;;8.01;59.43;93397.16;5116392;27;20037;-76
2021/11/27 01:46:49;;;;;;;1.75;1.20;;;;;;;8.46;59.47;93437.72;5116405;27;20027;-76
2021/11/27 01:49:14;;;;;;;2.20;1.00;;;;;;;8.40;57.50;93430.56;5099185;27;20413;-79
2021/11/27 01:51:40;;;;;;;1.95;1.27;;;;;;;8.55;58.14;93456.72;5099281;27;20030;-76
2021/11/27 01:54:07;;;;;;;1.90;1.10;;;;;;;8.63;57.48;93451.63;5116174;27;20484;-76
2021/11/27 01:56:42;;;;;;;2.33;1.05;;;;;;;8.81;56.95;93443.06;5133311;27;20019;-76
2021/11/27 01:59:08;;;;;;;1.85;1.10;;;;;;;8.79;56.83;93437.22;5099428;27;20035;-76
2021/11/27 02:01:33;;;;;;;2.22;1.08;;;;;;;8.75;57.10;93434.13;5116472;27;20026;-76
2021/11/27 02:03:59;;;;;;;2.38;1.10;;;;;;;8.67;57.68;93431.47;5115932;27;20386;-76
2021/11/27 02:06:25;;;;;;;2.05;1.10;;;;;;;8.76;57.62;93433.13;5133151;27;20047;-76
2021/11/27 02:08:53;;;;;;;2.28;1.05;;;;;;;8.75;57.04;93410.81;5098980;27;20029;-76
2021/11/27 02:11:26;;;;;;;2.00;1.13;;;;;;;8.83;57.62;93435.94;5099087;27;20107;-76
2021/11/27 02:13:52;;;;;;;2.70;1.40;;;;;;;8.76;57.81;93442.69;5115776;27;20378;-76
2021/11/27 02:16:17;;;;;;;2.20;1.20;;;;;;;8.78;57.66;93427.81;5115781;27;20038;-76
2021/11/27 02:18:43;;;;;;;1.98;1.10;;;;;;;8.71;57.32;93414.66;5115670;27;20019;-76
2021/11/27 02:21:10;;;;;;;1.70;0.90;;;;;;;8.73;57.10;93423.09;5099051;27;20113;-76
2021/11/27 02:23:36;;;;;;;2.58;1.17;;;;;;;8.60;56.45;93389.00;5098739;27;20035;-76
2021/11/27 02:26:03;;;;;;;1.85;1.27;;;;;;;8.74;55.85;93378.09;5098490;27;20035;-76
2021/11/27 02:28:29;;;;;;;1.50;1.10;;;;;;;9.01;55.86;93435.94;5098572;27;20052;-76
2021/11/27 02:30:54;;;;;;;1.80;1.45;;;;;;;8.92;56.76;93424.69;5098415;27;20073;-76
2021/11/27 02:33:20;;;;;;;2.50;1.30;;;;;;;8.98;56.72;93442.22;5115534;27;20473;-76
2021/11/27 02:35:45;;;;;;;2.15;1.38;;;;;;;8.87;58.27;93455.41;5132615;27;20035;-76
2021/11/27 02:38:10;;;;;;;2.70;1.50;;;;;;;8.81;58.17;93430.94;5115402;27;20031;-76
2021/11/27 02:40:36;;;;;;;2.33;1.40;;;;;;;8.80;58.15;93431.06;5134184;27;20035;-76
2021/11/27 02:43:01;;;;;;;2.60;1.60;;;;;;;8.66;59.70;93429.81;5115415;27;20120;-76
2021/11/27 02:45:27;;;;;;;4.15;1.70;;;;;;;8.58;60.03;93428.00;5115368;27;20031;-76
2021/11/27 02:47:52;;;;;;;4.30;1.90;;;;;;;8.47;59.61;93413.50;5098252;27;20038;-76
2021/11/27 02:50:18;;;;;;;3.47;2.15;;;;;;;8.47;58.37;93408.31;5115290;27;20088;-78
2021/11/27 02:52:43;;;;;;;7.07;2.00;;;;;;;8.45;58.26;93394.69;5115039;27;20038;-76
2021/11/27 02:55:09;;;;;;;2.83;1.50;;;;;;;8.46;58.25;93395.50;5115223;27;20106;-76
2021/11/27 02:57:34;;;;;;;3.28;1.80;;;;;;;8.43;58.98;93411.34;5114920;27;20075;-76
2021/11/27 03:00:01;;;;;;;4.43;2.00;;;;;;;8.00;59.21;93363.69;5098001;27;20473;-78
2021/11/27 03:02:26;;;;;;;3.78;1.95;;;;;;;8.50;58.29;93397.66;5098103;27;20500;-76
2021/11/27 03:04:52;;;;;;;2.97;1.63;;;;;;;8.26;57.75;93330.16;5114610;27;20058;-76
2021/11/27 03:07:17;;;;;;;2.13;1.20;;;;;;;8.68;57.47;93370.94;5097820;27;20125;-76
2021/11/27 03:09:43;;;;;;;2.40;1.88;;;;;;;8.70;57.40;93380.19;5131999;27;20027;-76
2021/11/27 03:12:09;;;;;;;5.03;1.20;;;;;;;8.73;57.00;93394.59;5115044;27;20493;-76
2021/11/27 03:14:34;;;;;;;2.65;1.30;;;;;;;8.78;57.19;93389.78;5131784;27;20061;-76
2021/11/27 03:17:00;;;;;;;1.75;1.30;;;;;;;8.68;57.79;93389.06;5097702;27;20473;-77
2021/11/27 03:19:26;;;;;;;2.30;1.20;;;;;;;8.73;57.04;93407.56;5097512;27;20477;-79
2021/11/27 03:21:51;;;;;;;2.20;1.42;;;;;;;8.82;56.86;93395.47;5097450;27;20488;-78
2021/11/27 03:24:17;;;;;;;2.60;1.20;;;;;;;8.97;56.63;93395.72;5114348;27;20480;-78
2021/11/27 03:26:43;;;;;;;4.25;1.02;;;;;;;9.02;56.16;93414.22;5131368;27;20408;-76
2021/11/27 03:29:08;;;;;;;2.38;1.42;;;;;;;9.08;55.99;93418.78;5114326;27;20035;-76
2021/11/27 03:31:33;;;;;;;3.17;1.50;;;;;;;8.89;56.91;93396.50;5114389;27;20076;-76
2021/11/27 03:33:59;;;;;;;2.47;1.25;;;;;;;8.58;57.04;93362.44;5114185;27;20031;-76
2021/11/27 03:36:25;;;;;;;2.10;1.30;;;;;;;8.65;56.06;93373.84;5097194;27;20073;-76
2021/11/27 03:38:50;;;;;;;2.22;1.30;;;;;;;8.81;56.16;93389.50;5131338;27;20096;-76
2021/11/27 03:41:16;;;;;;;3.72;1.70;;;;;;;9.03;56.29;93408.09;5114267;27;20133;-78
2021/11/27 03:43:41;;;;;;;2.15;1.40;;;;;;;9.07;56.31;93432.72;5097071;27;20023;-78
2021/11/27 03:46:08;;;;;;;2.33;1.73;;;;;;;8.85;57.63;93410.72;5114045;27;20412;-76
2021/11/27 03:48:35;;;;;;;2.25;1.55;;;;;;;8.76;58.29;93422.78;5114071;27;20031;-76
2021/11/27 03:51:02;;;;;;;3.00;1.52;;;;;;;8.68;58.38;93436.47;5097197;27;20551;-78
2021/11/27 03:53:30;;;;;;;3.33;1.83;;;;;;;8.62;59.29;93455.19;5113968;27;20027;-79
2021/11/27 03:55:56;;;;;;;3.90;1.90;;;;;;;8.53;59.06;93452.69;5097079;27;20023;-78
2021/11/27 03:58:21;;;;;;;2.92;1.73;;;;;;;8.45;59.26;93462.00;5096901;27;20039;-76
2021/11/27 04:00:47;;;;;;;5.60;1.90;;;;;;;8.43;59.19;93461.31;5131062;27;20031;-76
2021/11/27 04:03:13;;;;;;;3.83;1.70;;;;;;;8.41;59.42;93476.19;5130964;27;20019;-76
2021/11/27 04:05:41;;;;;;;3.90;1.80;;;;;;;8.45;58.58;93479.28;5113340;27;20055;-76
2021/11/27 04:08:07;;;;;;;2.20;1.40;;;;;;;8.58;57.25;93486.69;5113891;27;20039;-78
2021/11/27 04:10:32;;;;;;;3.15;1.20;;;;;;;8.65;56.83;93452.31;5096818;27;20034;-76
2021/11/27 04:12:58;;;;;;;3.00;1.40;;;;;;;8.26;56.87;93363.78;5096647;27;20087;-76
2021/11/27 04:15:23;;;;;;;4.68;1.60;;;;;;;8.91;56.39;93460.16;5130823;27;20031;-76
2021/11/27 04:17:49;;;;;;;2.03;1.23;;;;;;;8.98;56.00;93468.13;5096584;28;20114;-76
2021/11/27 04:20:15;;;;;;;3.75;2.17;;;;;;;8.65;55.97;93420.44;5113509;27;20492;-76
2021/11/27 04:22:40;;;;;;;3.35;2.30;;;;;;;8.87;56.75;93469.16;5113395;28;20033;-76
2021/11/27 04:25:06;;;;;;;3.80;2.28;;;;;;;8.82;57.07;93484.31;5130942;27;20027;-76
2021/11/27 04:27:32;;;;;;;4.55;3.30;;;;;;;8.73;56.84;93460.16;5113668;28;20691;-76
2021/11/27 04:29:57;;;;;;;3.53;1.88;;;;;;;8.87;56.30;93445.03;5096562;28;20039;-76
2021/11/27 04:32:23;;;;;;;4.70;2.25;;;;;;;9.12;55.58;93464.19;5096442;28;20397;-76
2021/11/27 04:34:48;;;;;;;3.88;1.80;;;;;;;9.14;55.82;93452.69;5130615;28;20038;-76
2021/11/27 04:37:15;;;;;;;3.50;1.52;;;;;;;9.20;55.27;93451.28;5098159;27;20030;-78
2021/11/27 04:39:40;;;;;;;3.65;1.25;;;;;;;9.25;55.10;93441.28;5134843;27;20035;-76
2021/11/27 04:42:06;;;;;;;4.80;1.50;;;;;;;9.33;55.08;93430.13;5100664;27;20036;-76
2021/11/27 04:44:32;;;;;;;3.80;1.40;;;;;;;9.40;55.41;93462.25;5117876;27;20039;-76
2021/11/27 04:46:57;;;;;;;2.47;1.40;;;;;;;9.32;55.06;93439.69;5100874;27;20023;-76
2021/11/27 04:49:23;;;;;;;3.83;1.38;;;;;;;9.51;54.98;93468.97;5117709;27;20664;-76
2021/11/27 04:51:48;;;;;;;2.58;1.30;;;;;;;9.54;54.49;93464.28;5117540;27;20454;-78
2021/11/27 04:54:14;;;;;;;2.53;1.40;;;;;;;9.59;54.32;93476.78;5117370;27;20450;-76
2021/11/27 04:56:39;;;;;;;2.33;1.15;;;;;;;9.26;54.40;93414.41;5100685;27;20019;-76
2021/11/27 04:59:04;;;;;;;2.22;1.25;;;;;;;9.55;54.55;93452.13;5117308;27;20544;-76
2021/11/27 05:01:30;;;;;;;3.45;1.40;;;;;;;9.31;54.59;93406.97;5100347;27;20497;-76
2021/11/27 05:03:56;;;;;;;2.50;1.50;;;;;;;9.59;54.33;93469.81;5117230;27;20092;-76
2021/11/27 05:06:22;;;;;;;2.08;1.40;;;;;;;9.36;54.41;93404.75;5099976;27;20497;-76
2021/11/27 05:08:48;;;;;;;2.20;1.55;;;;;;;9.65;54.32;93477.97;5135874;27;20031;-76
2021/11/27 05:11:13;;;;;;;2.55;1.08;;;;;;;9.44;54.28;93442.84;5135417;27;20023;-76
2021/11/27 05:13:39;;;;;;;2.70;1.10;;;;;;;9.61;54.10;93474.84;5134558;27;20023;-76
2021/11/27 05:16:06;;;;;;;3.28;1.20;;;;;;;9.60;53.75;93473.22;5134163;27;20023;-75
2021/11/27 05:18:32;;;;;;;3.03;1.50;;;;;;;9.69;53.59;93474.09;5135231;27;20393;-75
2021/11/27 05:20:57;;;;;;;2.75;1.90;;;;;;;9.76;53.70;93481.09;5133883;27;20481;-75
2021/11/27 05:23:23;;;;;;;3.13;1.40;;;;;;;9.72;53.93;93512.66;5116849;27;20027;-75
2021/11/27 05:25:48;;;;;;;2.80;1.50;;;;;;;9.75;54.19;93497.63;5117025;27;20444;-75
2021/11/27 05:28:14;;;;;;;2.20;1.40;;;;;;;9.77;54.07;93510.44;5133997;27;20107;-77
2021/11/27 05:30:39;;;;;;;3.58;1.45;;;;;;;9.77;54.17;93505.25;5133859;27;20027;-75
2021/11/27 05:35:30;;;;;;;2.83;1.10;;;;;;;9.71;54.15;93516.25;5135383;27;20420;-76
2021/11/27 05:37:56;;;;;;;2.20;1.08;;;;;;;9.76;54.18;93509.63;5116437;27;20416;-76
2021/11/27 05:40:21;;;;;;;2.53;1.50;;;;;;;9.79;53.93;93513.69;5133821;27;20027;-75
2021/11/27 05:42:47;;;;;;;3.85;1.55;;;;;;;9.73;54.39;93527.28;5116529;27;20491;-76
2021/11/27 05:45:12;;;;;;;6.72;5.18;;;;;;;9.66;54.74;93518.47;5116492;27;20416;-76
2021/11/27 05:47:38;;;;;;;3.55;2.20;;;;;;;9.69;54.43;93523.34;5116445;27;20046;-76
2021/11/27 05:50:04;;;;;;;8.93;4.90;;;;;;;9.67;54.57;93520.94;5099186;27;20031;-76
2021/11/27 05:52:30;;;;;;;4.32;2.53;;;;;;;9.72;54.85;93526.47;5099424;27;20023;-76
2021/11/27 05:54:55;;;;;;;2.13;1.40;;;;;;;9.73;54.28;93524.69;5133422;27;20043;-75
2021/11/27 05:57:21;;;;;;;3.65;1.38;;;;;;;9.81;54.45;93525.53;5099510;27;20088;-75
2021/11/27 05:59:46;;;;;;;2.10;1.38;;;;;;;9.85;54.18;93523.44;5098997;27;20031;-75
2021/11/27 06:02:12;;;;;;;2.33;1.30;;;;;;;9.92;53.76;93534.00;5116070;27;20031;-75
2021/11/27 06:04:38;;;;;;;4.32;1.85;;;;;;;9.96;53.80;93532.75;5098877;27;20104;-75
2021/11/27 06:07:03;;;;;;;3.90;2.58;;;;;;;9.94;54.27;93537.28;5115959;27;20481;-75
2021/11/27 06:09:29;;;;;;;4.80;2.10;;;;;;;9.93;54.38;93538.25;5133171;27;20119;-75
2021/11/27 06:11:54;;;;;;;4.50;2.83;;;;;;;9.95;54.32;93585.63;5116007;27;20023;-75
2021/11/27 06:14:19;;;;;;;1.73;1.10;;;;;;;9.95;53.44;93555.28;5115907;27;20027;-75
2021/11/27 06:16:45;;;;;;;3.38;1.50;;;;;;;10.06;53.90;93593.94;5098763;27;20088;-75
2021/11/27 06:19:10;;;;;;;3.10;2.00;;;;;;;10.09;53.92;93582.44;5132884;27;20092;-75
2021/11/27 06:21:36;;;;;;;3.15;1.27;;;;;;;10.11;54.13;93580.50;5115801;27;20476;-75
2021/11/27 06:24:02;;;;;;;4.03;1.60;;;;;;;9.96;53.95;93551.72;5115532;27;20043;-75
2021/11/27 06:26:27;;;;;;;3.83;1.70;;;;;;;10.06;54.54;93577.56;5115629;27;20041;-76
2021/11/27 06:28:53;;;;;;;2.28;1.30;;;;;;;10.03;54.30;93564.91;5132583;27;20115;-75
2021/11/27 06:31:18;;;;;;;2.50;1.20;;;;;;;10.07;53.94;93561.84;5115616;27;20023;-75
2021/11/27 06:33:44;;;;;;;3.08;1.80;;;;;;;10.17;53.91;93587.69;5098385;27;20536;-75
2021/11/27 06:36:09;;;;;;;3.15;1.95;;;;;;;10.07;53.79;93577.41;5115733;27;20422;-75
2021/11/27 06:38:35;;;;;;;3.05;1.42;;;;;;;10.26;52.87;93594.53;5115212;27;20039;-75
2021/11/27 06:41:00;;;;;;;2.00;1.20;;;;;;;10.40;52.63;93580.19;5115294;27;20429;-75
2021/11/27 06:43:26;;;;;;;4.00;1.52;;;;;;;10.34;52.87;93588.59;5132390;27;20444;-75
2021/11/27 06:45:51;;;;;;;3.20;1.50;;;;;;;10.47;52.49;93595.94;5115188;27;20071;-75
2021/11/27 06:48:17;;;;;;;2.33;1.30;;;;;;;10.51;52.42;93612.88;5115293;27;20047;-75
2021/11/27 06:50:42;;;;;;;2.45;1.50;;;;;;;10.45;52.64;93611.69;5132100;27;20501;-75
2021/11/27 06:53:07;;;;;;;3.10;1.77;;;;;;;10.40;52.82;93621.72;5132281;27;20490;-75
2021/11/27 06:55:33;;;;;;;11.90;10.70;;;;;;;10.36;53.03;93629.97;5115213;27;20031;-75
2021/11/27 06:57:59;;;;;;;2.70;1.50;;;;;;;10.47;51.71;93643.53;5097790;27;20031;-75
2021/11/27 07:00:24;;;;;;;2.65;1.30;;;;;;;10.58;51.91;93650.19;5114457;27;20027;-75
2021/11/27 07:02:50;;;;;;;8.00;2.80;;;;;;;10.53;52.35;93655.06;5114864;27;20500;-75
2021/11/27 07:05:15;;;;;;;4.00;3.00;;;;;;;10.74;51.84;93662.47;5131997;27;20047;-76
2021/11/27 07:07:41;;;;;;;2.53;1.40;;;;;;;11.30;49.62;93668.81;5114980;27;20417;-75
2021/11/27 07:10:06;;;;;;;5.60;3.33;;;;;;;11.56;49.36;93649.66;5131937;27;20031;-75
2021/11/27 07:12:32;;;;;;;4.68;2.40;;;;;;;11.70;48.64;93648.22;5131898;27;20035;-76
2021/11/27 07:15:01;;;;;;;3.83;2.08;;;;;;;11.90;48.09;93672.19;5114793;27;20028;-76
2021/11/27 07:17:27;;;;;;;4.53;2.30;;;;;;;11.97;47.67;93668.75;5131854;27;20027;-76
2021/11/27 07:19:52;;;;;;;4.82;1.90;;;;;;;12.10;47.35;93668.25;5114527;27;20398;-76
2021/11/27 07:22:17;;;;;;;2.50;1.40;;;;;;;12.20;46.83;93673.28;5131811;27;20027;-75
2021/11/27 07:24:43;;;;;;;3.35;1.40;;;;;;;12.53;46.80;93669.66;5114633;27;20454;-76
2021/11/27 07:27:08;;;;;;;46.78;20.27;;;;;;;13.24;45.18;93689.78;5114494;27;20458;-75
2021/11/27 07:29:35;;;;;;;2.88;1.48;;;;;;;13.91;43.02;93676.19;5114428;27;20035;-75
2021/11/27 07:32:01;;;;;;;3.22;1.50;;;;;;;14.93;41.33;93700.09;5114536;27;20031;-76
2021/11/27 07:34:26;;;;;;;3.63;1.85;;;;;;;15.80;38.63;93686.28;5097419;27;20027;-75
2021/11/27 07:36:52;;;;;;;3.45;1.55;;;;;;;16.43;37.20;93681.97;5131419;27;20404;-76
2021/11/27 07:39:17;;;;;;;2.90;1.40;;;;;;;16.48;36.45;93700.56;5131254;27;20393;-75
2021/11/27 07:41:43;;;;;;;4.47;1.80;;;;;;;16.38;36.75;93700.09;5132647;27;20413;-76
2021/11/27 07:44:08;;;;;;;8.95;3.60;;;;;;;16.33;37.31;93707.72;5132735;27;20031;-76
2021/11/27 07:46:34;;;;;;;8.02;1.80;;;;;;;15.89;37.39;93687.78;5131240;27;20070;-75
2021/11/27 07:48:59;;;;;;;13.13;6.55;;;;;;;15.71;37.73;93679.53;5113988;27;20030;-75
2021/11/27 07:51:25;;;;;;;6.57;3.03;;;;;;;14.96;39.25;93640.41;5114045;27;20030;-75
2021/11/27 07:53:50;;;;;;;8.35;4.40;;;;;;;14.26;40.95;93675.59;5131003;27;20027;-75
2021/11/27 07:56:16;;;;;;;3.67;1.80;;;;;;;13.36;42.77;93684.03;5132370;27;20039;-75
2021/11/27 07:58:41;;;;;;;9.68;3.80;;;;;;;13.11;43.58;93664.25;5131014;27;20023;-75
2021/11/27 08:01:07;;;;;;;2.88;1.30;;;;;;;12.93;43.58;93696.59;5113862;27;20027;-75
2021/11/27 08:03:32;;;;;;;2.05;1.20;;;;;;;12.74;45.03;93681.34;5130933;27;20070;-75
2021/11/27 08:05:58;;;;;;;2.65;1.40;;;;;;;12.67;45.26;93681.16;5114098;27;20051;-75
2021/11/27 08:08:23;;;;;;;15.68;8.35;;;;;;;12.67;45.46;93709.03;5113812;27;20023;-75
2021/11/27 08:10:49;;;;;;;6.25;2.28;;;;;;;12.57;45.13;93679.75;5130694;27;20039;-75
2021/11/27 08:13:14;;;;;;;3.40;2.00;;;;;;;12.50;45.76;93705.63;5096153;27;20030;-75
2021/11/27 08:15:40;;;;;;;3.35;1.60;;;;;;;12.43;45.50;93689.88;5113818;27;20042;-75
2021/11/27 08:18:05;;;;;;;9.52;2.70;;;;;;;12.47;45.66;93700.75;5130706;27;20027;-75
2021/11/27 08:20:31;;;;;;;3.45;2.00;;;;;;;12.31;45.97;93685.97;5132411;27;20339;-76
2021/11/27 08:22:56;;;;;;;5.05;4.07;;;;;;;12.41;46.67;93706.63;5113596;27;20062;-76
2021/11/27 08:25:22;;;;;;;6.95;3.92;;;;;;;12.34;46.47;93701.28;5130791;27;20035;-76
2021/11/27 08:27:47;;;;;;;10.77;5.03;;;;;;;12.41;46.61;93710.06;5130656;27;20472;-76
2021/11/27 08:30:13;;;;;;;10.65;5.63;;;;;;;12.43;46.15;93697.69;5132202;27;20100;-76
2021/11/27 08:32:38;;;;;;;6.43;3.67;;;;;;;12.36;45.73;93686.28;5113494;28;20023;-76
2021/11/27 08:35:04;;;;;;;8.18;4.60;;;;;;;12.48;46.37;93691.97;5127086;27;20458;-76
2021/11/27 08:37:30;;;;;;;2.72;1.52;;;;;;;12.40;46.31;93698.00;5119259;27;20026;-75
2021/11/27 08:39:56;;;;;;;2.67;1.48;;;;;;;12.43;45.64;93702.91;5092960;28;20044;-73
2021/11/27 08:42:22;;;;;;;2.85;1.30;;;;;;;12.22;47.34;93705.19;5111269;28;20023;-74
2021/11/27 08:44:48;;;;;;;3.13;1.30;;;;;;;12.06;47.07;93688.59;5117888;28;20083;-73
2021/11/27 08:47:14;;;;;;;2.88;1.30;;;;;;;12.04;47.15;93694.94;5130574;28;20031;-74
2021/11/27 08:49:40;;;;;;;3.80;1.90;;;;;;;11.96;48.44;93706.16;5113377;28;20504;-74
2021/11/27 08:52:06;;;;;;;4.38;2.92;;;;;;;12.00;47.59;93711.84;5124015;27;20088;-74
2021/11/27 08:54:31;;;;;;;11.38;5.80;;;;;;;11.96;47.99;93729.59;5122715;28;20035;-74
2021/11/27 08:56:57;;;;;;;9.48;5.20;;;;;;;11.93;48.24;93722.09;5111219;28;20434;-73
2021/11/27 08:59:23;;;;;;;8.95;4.68;;;;;;;12.00;47.78;93722.25;5125918;27;20054;-74
2021/11/27 09:01:50;;;;;;;14.73;6.05;;;;;;;11.92;47.75;93706.66;5133602;27;20030;-74
2021/11/27 09:04:15;;;;;;;5.57;3.40;;;;;;;11.79;47.74;93694.09;5133865;27;20027;-73
2021/11/27 09:06:41;;;;;;;4.72;2.22;;;;;;;11.85;48.65;93702.09;5152511;27;20019;-73
2021/11/27 09:09:07;;;;;;;5.43;2.30;;;;;;;11.65;48.83;93692.94;5151158;27;20031;-73
2021/11/27 09:11:32;;;;;;;4.15;2.05;;;;;;;11.68;49.35;93697.81;5133733;27;20408;-74
2021/11/27 09:13:58;;;;;;;3.25;1.70;;;;;;;11.75;49.51;93711.00;5134004;27;20045;-73
2021/11/27 09:16:23;;;;;;;5.38;1.70;;;;;;;11.75;48.76;93705.78;5151140;27;20021;-74
2021/11/27 09:18:49;;;;;;;11.88;1.90;;;;;;;11.78;48.82;93715.88;5150939;27;20035;-74
2021/11/27 09:21:14;;;;;;;3.03;1.30;;;;;;;11.81;47.33;93699.94;5152134;27;20030;-73
2021/11/27 09:23:40;;;;;;;2.60;1.40;;;;;;;11.75;47.47;93679.78;5154489;27;20026;-73
2021/11/27 09:26:05;;;;;;;2.83;1.52;;;;;;;11.92;47.75;93696.22;5155282;27;20506;-73
2021/11/27 09:28:31;;;;;;;3.85;1.45;;;;;;;11.93;48.83;93700.47;5137772;27;20034;-73
2021/11/27 09:30:56;;;;;;;3.55;1.60;;;;;;;11.94;47.01;93700.31;5154660;27;20027;-74
2021/11/27 09:33:22;;;;;;;2.30;1.20;;;;;;;11.97;47.26;93688.75;5156239;27;20023;-73
2021/11/27 09:36:07;;;;;;;1.90;1.10;;;;;;;12.04;47.05;93713.97;5155165;27;20030;-73
2021/11/27 09:38:34;;;;;;;5.20;1.90;;;;;;;12.14;46.88;93695.59;5140431;27;20381;-73
2021/11/27 09:41:17;;;;;;;2.97;1.65;;;;;;;12.01;47.11;93675.28;5120355;27;20453;-73
2021/11/27 09:43:43;;;;;;;5.28;1.95;;;;;;;12.16;46.91;93695.44;5154605;27;20104;-73
2021/11/27 09:46:10;;;;;;;2.80;2.05;;;;;;;12.01;47.53;93687.47;5155545;27;20091;-73
2021/11/27 09:48:40;;;;;;;3.13;1.65;;;;;;;12.11;47.18;93703.72;5137257;27;20034;-75
2021/11/27 09:51:05;;;;;;;2.08;1.42;;;;;;;12.18;46.90;93690.88;5138113;27;20026;-74
2021/11/27 09:53:31;;;;;;;3.25;1.75;;;;;;;12.28;46.69;93696.72;5136876;27;20033;-74
2021/11/27 09:55:56;;;;;;;3.22;1.65;;;;;;;12.20;47.48;93686.31;5119720;27;20027;-74
2021/11/27 09:58:22;;;;;;;3.35;2.05;;;;;;;12.33;47.61;93694.44;5136983;27;20389;-74
2021/11/27 10:00:48;;;;;;;3.92;1.85;;;;;;;12.35;47.90;93696.88;5136942;27;20030;-74
2021/11/27 10:03:13;;;;;;;3.40;1.70;;;;;;;12.34;47.24;93680.44;5136957;27;20084;-74
2021/11/27 10:05:38;;;;;;;4.18;1.88;;;;;;;12.45;46.71;93680.09;5136496;27;20054;-73
2021/11/27 10:08:04;;;;;;;6.10;2.97;;;;;;;12.31;46.66;93646.91;5136731;27;20039;-73
2021/11/27 10:10:29;;;;;;;6.13;3.70;;;;;;;12.51;47.07;93663.00;5136791;27;20114;-73
2021/11/27 10:12:55;;;;;;;8.93;6.70;;;;;;;12.65;47.84;93677.13;5155659;27;20045;-77
2021/11/27 10:15:21;;;;;;;6.43;2.88;;;;;;;12.68;45.05;93690.63;5156541;27;20552;-73
2021/11/27 10:17:46;;;;;;;2.53;1.63;;;;;;;12.85;44.32;93672.34;5155257;27;20062;-73
2021/11/27 10:20:13;;;;;;;3.83;1.80;;;;;;;12.95;44.70;93668.56;5152931;27;20461;-74
2021/11/27 10:22:38;;;;;;;3.53;1.60;;;;;;;13.05;44.60;93672.75;5151473;27;20031;-74
2021/11/27 10:25:26;;;;;;;2.63;1.50;;;;;;;13.13;43.94;93668.31;5147088;27;20140;-73
2021/11/27 10:27:59;;;;;;;3.45;1.50;;;;;;;13.31;44.14;93668.06;5111023;28;20057;-73
2021/11/27 10:30:24;;;;;;;3.92;1.77;;;;;;;13.49;43.55;93680.06;5112377;28;20486;-74
2021/11/27 10:32:49;;;;;;;5.05;2.90;;;;;;;13.71;43.19;93689.72;5112180;28;20038;-74
2021/11/27 10:35:19;;;;;;;5.15;1.80;;;;;;;13.86;42.93;93676.72;5111293;28;20387;-74
2021/11/27 10:37:54;;;;;;;6.65;4.68;;;;;;;14.04;42.17;93658.13;5095158;28;20423;-74
2021/11/27 10:40:24;;;;;;;3.65;1.92;;;;;;;14.19;40.98;93658.97;5112177;28;20072;-73
2021/11/27 10:42:51;;;;;;;3.73;1.77;;;;;;;14.20;41.55;93665.81;5095387;28;20114;-74
2021/11/27 10:45:20;;;;;;;2.08;1.40;;;;;;;14.23;41.56;93660.25;5112037;28;20063;-74
2021/11/27 10:47:47;;;;;;;2.47;1.58;;;;;;;14.23;41.65;93652.41;5094705;28;20027;-74
2021/11/27 10:50:18;;;;;;;4.72;2.60;;;;;;;14.36;42.44;93651.00;5112075;28;20046;-74
2021/11/27 10:52:44;;;;;;;3.70;2.45;;;;;;;14.46;41.36;93652.38;5095452;28;20020;-74
2021/11/27 10:55:30;;;;;;;4.43;2.63;;;;;;;14.42;41.45;93618.94;5111748;28;20036;-74
2021/11/27 10:58:00;;;;;;;4.70;2.00;;;;;;;14.49;40.73;93641.56;5094097;28;20040;-74
2021/11/27 11:00:40;;;;;;;2.60;1.40;;;;;;;14.50;40.95;93643.16;5111666;28;20496;-74
2021/11/27 11:03:22;;;;;;;2.55;1.20;;;;;;;14.62;40.38;93640.94;5095118;28;20661;-73
2021/11/27 11:05:47;;;;;;;2.42;1.25;;;;;;;14.58;40.16;93634.47;5111434;28;20052;-74
2021/11/27 11:08:13;;;;;;;2.45;1.30;;;;;;;14.82;39.99;93636.00;5111520;28;20024;-74
2021/11/27 11:10:39;;;;;;;2.63;1.20;;;;;;;14.65;40.10;93624.91;5112996;28;20085;-74
2021/11/27 11:13:11;;;;;;;3.58;1.30;;;;;;;14.69;40.64;93620.97;5094264;28;20055;-74
2021/11/27 11:15:41;;;;;;;2.05;1.30;;;;;;;14.59;40.83;93625.63;5094423;28;20039;-74
2021/11/27 11:18:11;;;;;;;3.00;1.80;;;;;;;14.87;40.46;93627.59;5111236;28;20107;-74
2021/11/27 11:20:45;;;;;;;59.85;21.10;;;;;;;15.06;38.70;93594.84;5111326;28;20031;-74
2021/11/27 11:23:11;;;;;;;11.60;5.38;;;;;;;15.10;39.52;93607.41;5111200;28;20054;-74
2021/11/27 11:25:58;;;;;;;6.35;2.22;;;;;;;15.26;39.46;93608.97;5094179;28;20497;-74
2021/11/27 11:28:25;;;;;;;4.28;2.60;;;;;;;15.35;38.42;93600.03;5108223;27;20100;-74
2021/11/27 11:30:52;;;;;;;3.58;1.52;;;;;;;15.30;37.94;93580.66;5111217;28;20580;-74
2021/11/27 11:33:19;;;;;;;2.92;1.20;;;;;;;15.38;39.10;93583.16;5111648;28;20028;-74
2021/11/27 11:35:44;;;;;;;3.08;1.85;;;;;;;15.34;38.73;93568.78;5112302;28;20467;-74